Latest Weather Observations for Cape Ferguson

IDQ60801

Issued at 5:05 am EST Wednesday 23 July 2014 (issued every 30 minutes, with the page automatically refreshed every 10 minutes)

About weather observations | Map of weather stations | Latest weather observations for QLD | Other Formats
Station Details ID: 032182 Name: CAPE FERGUSON NTC AWS Lat: -19.28 Lon: 147.06 Height: 0.0 m
Data from the previous 72 hours. | See also: Recent months for locations in Queensland
Date/Time
EST
Temp
°C
App
Temp
°C
Dew
Point
Rel
Hum
%
Delta-T
°C
Wind Press
QNH
hPa
Press
MSL
hPa
Rain
since 9 am
mm
Dir
 
Spd
km/h
Gust
km/h
Spd
kts
Gust
kts
23/05:00am 18.0 - - - - W 4 6 2 3 1017.3 1017.3 -
23/04:30am 17.7 - - - - WNW 4 6 2 3 1017.3 - -
23/04:00am 16.5 - - - - WNW 4 6 2 3 1017.4 1017.4 -
23/03:30am 18.4 - - - - W 6 7 3 4 1017.1 - -
23/03:00am 18.1 - - - - WNW 4 7 2 4 1017.2 1017.2 -
23/02:30am 18.1 - - - - WNW 2 4 1 2 1017.3 - -
23/02:00am 19.1 - - - - WNW 2 6 1 3 1017.5 1017.5 -
23/01:30am 19.1 - - - - WSW 2 4 1 2 1017.9 - -
23/01:00am 20.0 - - - - SSE 7 9 4 5 1018.2 1018.2 -
23/12:30am 20.2 - - - - SE 9 15 5 8 1018.4 - -
23/12:00am 21.1 - - - - E 15 19 8 10 1018.6 1018.6 -
 
Date/Time
EST
Temp
°C
App
Temp
°C
Dew
Point
Rel
Hum
%
Delta-T
°C
Wind Press
QNH
hPa
Press
MSL
hPa
Rain
since 9 am
mm
Dir
 
Spd
km/h
Gust
km/h
Spd
kts
Gust
kts
22/11:30pm 21.2 - - - - E 15 19 8 10 1018.6 - -
22/11:00pm 21.2 - - - - E 17 19 9 10 1018.7 1018.7 -
22/10:30pm 21.2 - - - - E 13 15 7 8 1018.8 - -
22/10:00pm 21.4 - - - - E 17 19 9 10 1018.8 1018.8 -
22/09:30pm 21.4 - - - - E 13 17 7 9 1018.8 - -
22/09:00pm 18.4 - - - - WNW 2 6 1 3 1018.6 1018.6 -
22/08:30pm 18.0 - - - - WNW 2 4 1 2 1018.4 - -
22/08:00pm 19.9 - - - - NNW 4 7 2 4 1018.2 1018.2 -
22/07:30pm 20.2 - - - - NNW 4 6 2 3 1017.9 - -
22/07:00pm 20.4 - - - - NNW 4 7 2 4 1017.4 1017.4 -
22/06:30pm 20.7 - - - - NNE 6 9 3 5 1017.1 - -
22/06:00pm 21.0 - - - - NNE 6 7 3 4 1016.8 1016.8 -
22/05:30pm 21.1 - - - - NNW 4 6 2 3 1016.5 - -
22/05:00pm 21.8 - - - - N 2 7 1 4 1016.3 1016.3 -
22/04:30pm 21.8 - - - - ENE 4 11 2 6 1016.1 - -
22/04:00pm 21.6 - - - - ENE 6 15 3 8 1016.2 1016.2 -
22/03:30pm 21.6 - - - - NE 9 20 5 11 1016.2 - -
22/03:00pm 21.7 - - - - NE 9 19 5 10 1016.4 1016.4 -
22/02:30pm 21.5 - - - - NNE 9 17 5 9 1016.4 - -
22/02:00pm 21.8 - - - - ENE 6 9 3 5 1016.5 1016.5 -
22/01:30pm 21.6 - - - - NE 7 11 4 6 1016.9 - -
22/01:00pm 21.3 - - - - ENE 6 9 3 5 1017.4 1017.4 -
22/12:30pm 20.9 - - - - E 2 4 1 2 1018.2 - -
22/12:00pm 20.1 - - - - ESE 4 6 2 3 1018.9 1018.9 -
22/11:30am 19.8 - - - - SE 9 11 5 6 1019.4 - -
22/11:00am 19.5 - - - - SE 11 13 6 7 1019.9 1019.9 -
22/10:30am 19.1 - - - - SSE 9 13 5 7 1020.2 - -
22/10:00am 18.6 - - - - W 4 6 2 3 1020.3 1020.3 -
22/09:30am 18.1 - - - - W 4 6 2 3 1020.5 - -
22/09:00am 17.2 - - - - SW 4 7 2 4 1020.5 1020.5 -
22/08:30am 17.2 - - - - SSW 6 9 3 5 1020.3 - -
22/08:00am 16.6 - - - - WNW 7 11 4 6 1020.2 1020.2 -
22/07:30am 15.9 - - - - W 6 9 3 5 1020.0 - -
22/07:00am 14.9 - - - - NW 7 9 4 5 1019.8 1019.8 -
22/06:30am 14.5 - - - - NW 6 7 3 4 1019.5 - -
22/06:00am 14.3 - - - - WNW 4 7 2 4 1019.2 1019.2 -
22/05:30am 16.2 - - - - WSW 6 7 3 4 1018.9 - -
22/05:00am 16.5 - - - - WNW 4 6 2 3 1018.6 1018.6 -
22/04:30am 15.7 - - - - NW 4 6 2 3 1018.5 - -
22/04:00am 16.2 - - - - NW 4 6 2 3 1018.7 1018.7 -
22/03:30am 15.5 - - - - WNW 4 6 2 3 1018.8 - -
22/03:00am 17.3 - - - - NW 6 7 3 4 1018.7 1018.7 -
22/02:30am 16.3 - - - - NW 4 6 2 3 1018.9 - -
22/02:00am 16.4 - - - - NW 6 6 3 3 1019.1 1019.1 -
22/01:30am 16.5 - - - - WNW 4 6 2 3 1019.3 - -
22/01:00am 15.1 - - - - NW 4 6 2 3 1019.5 1019.5 -
22/12:30am 16.1 - - - - WNW 4 6 2 3 1019.7 - -
22/12:00am 16.8 - - - - NW 4 4 2 2 1019.7 1019.7 -
 
Date/Time
EST
Temp
°C
App
Temp
°C
Dew
Point
Rel
Hum
%
Delta-T
°C
Wind Press
QNH
hPa
Press
MSL
hPa
Rain
since 9 am
mm
Dir
 
Spd
km/h
Gust
km/h
Spd
kts
Gust
kts
21/11:30pm 16.7 - - - - NW 2 6 1 3 1019.9 - -
21/11:00pm 16.2 - - - - NW 4 6 2 3 1020.1 1020.1 -
21/10:30pm 17.2 - - - - W 2 6 1 3 1020.2 - -
21/10:00pm 17.1 - - - - WNW 4 6 2 3 1020.2 1020.2 -
21/09:30pm 16.5 - - - - NW 6 7 3 4 1020.3 - -
21/09:00pm 16.6 - - - - WSW 4 6 2 3 1020.3 1020.3 -
21/08:30pm 17.8 - - - - WNW 2 4 1 2 1020.2 - -
21/08:00pm 18.3 - - - - CALM 0 0 0 0 1020.0 1020.0 -
21/07:30pm 18.1 - - - - WNW 2 4 1 2 1019.8 - -
21/07:00pm 18.9 - - - - NNW 2 4 1 2 1019.4 1019.4 -
21/06:30pm 18.7 - - - - N 4 6 2 3 1018.9 - -
21/06:00pm 19.8 - - - - ENE 7 11 4 6 1018.7 1018.7 -
21/05:30pm 19.8 - - - - ENE 9 13 5 7 1018.4 - -
21/05:00pm 19.9 - - - - ENE 11 15 6 8 1018.2 1018.2 -
21/04:30pm 19.8 - - - - ENE 11 15 6 8 1018.0 - -
21/04:00pm 19.8 - - - - ENE 13 17 7 9 1018.1 1018.1 -
21/03:30pm 19.7 - - - - ENE 13 17 7 9 1017.9 - -
21/03:00pm 19.7 - - - - ENE 13 17 7 9 1017.9 1017.9 -
21/02:30pm 19.7 - - - - ENE 11 13 6 7 1018.0 - -
21/02:00pm 19.6 - - - - ENE 11 15 6 8 1018.1 1018.1 -
21/01:30pm 19.4 - - - - E 13 15 7 8 1018.5 - -
21/01:00pm 19.2 - - - - E 11 15 6 8 1019.0 1019.0 -
21/12:30pm 18.8 - - - - E 9 13 5 7 1019.5 - -
21/12:00pm 18.9 - - - - ESE 9 13 5 7 1020.0 1020.0 -
21/11:30am 18.5 - - - - ESE 13 17 7 9 1020.5 - -
21/11:00am 18.4 - - - - SSE 13 17 7 9 1020.8 1020.8 -
21/10:30am 18.3 - - - - S 11 15 6 8 1021.0 - -
21/10:00am 17.9 - - - - S 9 13 5 7 1021.3 1021.3 -
21/09:30am 17.4 - - - - S 9 13 5 7 1021.4 - -
21/09:00am 16.6 - - - - W 6 9 3 5 1021.4 1021.4 -
21/08:30am 16.2 - - - - S 7 11 4 6 1021.1 - -
21/08:00am 15.7 - - - - WSW 4 7 2 4 1020.8 1020.8 -
21/07:30am 14.9 - - - - W 6 9 3 5 1020.5 - -
21/07:00am 14.3 - - - - WNW 7 9 4 5 1020.2 1020.2 -
21/06:30am 13.9 - - - - WNW 6 7 3 4 1019.9 - -
21/06:00am 15.3 - - - - WNW 6 7 3 4 1019.6 1019.6 -
21/05:30am 14.1 - - - - WNW 6 9 3 5 1019.4 - -
21/05:00am 15.2 - - - - WNW 4 6 2 3 1019.1 1019.1 -
21/04:30am 15.4 - - - - W 7 9 4 5 1019.1 - -
21/04:00am 14.8 - - - - WNW 6 9 3 5 1019.3 1019.3 -
21/03:30am 15.4 - - - - S 6 13 3 7 1019.3 - -
21/03:00am 15.1 - - - - SW 6 7 3 4 1019.3 1019.3 -
21/02:30am 16.2 - - - - SSE 15 19 8 10 1019.3 - -
21/02:00am 17.0 - - - - WNW 6 7 3 4 1019.5 1019.5 -
21/01:30am 16.6 - - - - WNW 6 7 3 4 1019.8 - -
21/01:00am 15.8 - - - - WNW 4 6 2 3 1019.9 1019.9 -
21/12:30am 15.4 - - - - WNW 4 7 2 4 1020.2 - -
21/12:00am 16.3 - - - - NW 6 7 3 4 1020.3 1020.3 -
 
Date/Time
EST
Temp
°C
App
Temp
°C
Dew
Point
Rel
Hum
%
Delta-T
°C
Wind Press
QNH
hPa
Press
MSL
hPa
Rain
since 9 am
mm
Dir
 
Spd
km/h
Gust
km/h
Spd
kts
Gust
kts
20/11:30pm 16.9 - - - - WNW 6 7 3 4 1020.3 - -
20/11:00pm 16.6 - - - - NW 4 7 2 4 1020.4 1020.4 -
20/10:30pm 16.1 - - - - NW 4 6 2 3 1020.5 - -
20/10:00pm 16.3 - - - - WNW 6 9 3 5 1020.6 1020.6 -
20/09:30pm 19.5 - - - - ENE 7 13 4 7 1020.5 - -
20/09:00pm 19.5 - - - - ENE 11 15 6 8 1020.4 1020.4 -
20/08:30pm 19.4 - - - - ENE 13 15 7 8 1020.3 - -
20/08:00pm 19.4 - - - - ENE 13 17 7 9 1020.3 1020.3 -
20/07:30pm 19.4 - - - - ENE 15 19 8 10 1020.0 - -
20/07:00pm 19.4 - - - - ENE 15 19 8 10 1019.6 1019.6 -
20/06:30pm 19.4 - - - - ENE 15 19 8 10 1019.3 - -
20/06:00pm 19.3 - - - - ENE 17 20 9 11 1019.0 1019.0 -
20/05:30pm 19.3 - - - - ENE 17 19 9 10 1018.6 - -
20/05:00pm 19.2 - - - - ENE 17 20 9 11 1018.5 1018.5 -
20/04:30pm 19.3 - - - - ENE 15 19 8 10 1018.3 - -
20/04:00pm 19.3 - - - - ENE 15 17 8 9 1018.1 1018.1 -
20/03:30pm 19.6 - - - - ENE 9 15 5 8 1018.0 - -
20/03:00pm 19.3 - - - - ENE 11 13 6 7 1018.1 1018.1 -
20/02:30pm 19.0 - - - - ENE 11 13 6 7 1018.3 - -
20/02:00pm 18.8 - - - - E 9 11 5 6 1018.4 1018.4 -
20/01:30pm 18.8 - - - - ESE 7 11 4 6 1018.7 - -
20/01:00pm 18.7 - - - - ESE 6 9 3 5 1018.9 1018.9 -
20/12:30pm 18.5 - - - - SE 7 11 4 6 1019.4 - -
20/12:00pm 18.2 - - - - SE 13 17 7 9 1020.0 1020.0 -
20/11:30am 17.9 - - - - SE 15 19 8 10 1020.5 - -
20/11:00am 17.6 - - - - SSE 17 20 9 11 1020.7 1020.7 -
20/10:30am 17.4 - - - - SSE 19 22 10 12 1021.0 - -
20/10:00am 17.1 - - - - SSE 17 20 9 11 1021.1 1021.1 -
20/09:30am 16.6 - - - - S 17 20 9 11 1021.2 - -
20/09:00am 16.2 - - - - S 11 20 6 11 1021.2 1021.2 -
20/08:30am 15.3 - - - - WSW 6 11 3 6 1020.8 - -
20/08:00am 14.6 - - - - WSW 9 19 5 10 1020.5 1020.5 -
20/07:30am 14.4 - - - - SW 9 15 5 8 1020.1 - -
20/07:00am 13.4 - - - - WNW 7 13 4 7 1019.9 1019.9 -
20/06:30am 13.2 - - - - W 7 9 4 5 1019.7 - -
20/06:00am 12.9 - - - - W 6 9 3 5 1019.3 1019.3 -
20/05:30am 12.9 - - - - W 6 7 3 4 1019.1 - -

Other Formats:

Comma delimited format used in spreadsheet applications
http://www.bom.gov.au/fwo/IDQ60801/IDQ60801.94297.axf

JavaScript Object Notation format (JSON) in row-major order
http://www.bom.gov.au/fwo/IDQ60801/IDQ60801.94297.json